Time;durP1;ratioP1;P1;durP2;ratioP2;P2;SDS_P1;SDS_P2;PMS_P1;PMS_P2;Temp;Humidity;BMP_temperature;BMP_pressure;BME280_temperature;BME280_humidity;BME280_pressure;Samples;Min_cycle;Max_cycle;Signal;HPM_P1;HPM_P2
2024/04/24 00:04:55;;;;;;;61.10;27.20;;;;;;;4.95;64.93;100188.58;667851;1275;139345;-79
2024/04/24 00:19:58;;;;;;;27.50;14.30;;;;;;;4.78;64.60;100175.17;667315;1263;138774;-79
2024/04/24 00:35:01;;;;;;;34.00;17.20;;;;;;;4.57;65.02;100163.69;667762;1274;138824;-79
2024/04/24 00:50:08;;;;;;;31.20;15.90;;;;;;;4.35;65.30;100151.05;667841;1260;138492;-80
2024/04/24 01:05:12;;;;;;;27.60;15.00;;;;;;;4.58;65.44;100129.00;667619;1263;140071;-80
2024/04/24 01:20:22;;;;;;;25.50;13.00;;;;;;;4.68;65.88;100108.70;667618;1265;139097;-80
2024/04/24 01:35:26;;;;;;;32.60;14.90;;;;;;;4.90;64.97;100082.52;667297;1264;138875;-79
2024/04/24 01:50:28;;;;;;;29.00;13.50;;;;;;;5.11;64.70;100048.86;667271;1266;138829;-80
2024/04/24 02:05:31;;;;;;;27.50;13.60;;;;;;;5.23;64.00;100025.13;668264;1275;139562;-80
2024/04/24 02:20:35;;;;;;;15.80;10.80;;;;;;;5.34;62.86;100009.27;668267;1272;139502;-79
2024/04/24 02:35:38;;;;;;;19.40;11.50;;;;;;;5.39;62.90;100001.14;667646;1263;138848;-79
2024/04/24 02:50:41;;;;;;;17.60;10.50;;;;;;;5.38;63.00;99987.67;666108;1265;139137;-80
2024/04/24 03:05:45;;;;;;;19.00;10.10;;;;;;;5.27;63.30;99967.27;667274;1264;139360;-78
2024/04/24 03:20:48;;;;;;;16.70;10.10;;;;;;;5.15;63.76;99938.30;668561;1273;138609;-79
2024/04/24 03:35:52;;;;;;;15.90;9.50;;;;;;;5.10;63.92;99920.62;672193;1264;138550;-79
2024/04/24 03:50:55;;;;;;;16.10;10.60;;;;;;;5.18;64.08;99901.55;672209;1267;138829;-80
2024/04/24 04:05:58;;;;;;;14.40;9.10;;;;;;;5.41;63.78;99886.20;675980;1272;138817;-80
2024/04/24 04:21:02;;;;;;;17.80;8.70;;;;;;;5.55;64.12;99872.14;671050;1264;138886;-80
2024/04/24 04:36:06;;;;;;;16.20;10.20;;;;;;;5.68;64.51;99851.77;668934;1261;138511;-79
2024/04/24 04:51:08;;;;;;;15.10;10.30;;;;;;;5.85;64.15;99839.95;670477;1261;138624;-80
2024/04/24 05:06:12;;;;;;;51.30;22.30;;;;;;;6.04;64.30;99834.16;669037;1264;139178;-80
2024/04/24 05:21:15;;;;;;;43.50;18.10;;;;;;;6.18;64.07;99820.77;668800;1263;138647;-77
2024/04/24 05:36:18;;;;;;;28.90;13.90;;;;;;;6.40;63.80;99809.35;666253;1263;138715;-79
2024/04/24 05:51:21;;;;;;;41.50;17.30;;;;;;;6.65;63.90;99795.63;666483;1267;139343;-81
2024/04/24 06:06:25;;;;;;;30.80;17.90;;;;;;;7.09;64.09;99779.77;669125;1261;138892;-79
2024/04/24 06:21:28;;;;;;;57.30;24.80;;;;;;;7.22;63.90;99774.36;668949;1264;138744;-79
2024/04/24 06:36:32;;;;;;;58.10;30.70;;;;;;;7.79;63.98;99758.45;668797;1261;139842;-81
2024/04/24 06:51:36;;;;;;;23.90;11.70;;;;;;;9.34;63.45;99744.84;671289;1264;141059;-79
2024/04/24 07:06:39;;;;;;;18.80;11.40;;;;;;;9.81;63.11;99741.27;668626;1267;138516;-79
2024/04/24 07:21:42;;;;;;;22.70;12.80;;;;;;;10.29;62.27;99726.79;668241;1266;138923;-80
2024/04/24 07:36:46;;;;;;;24.10;12.60;;;;;;;10.79;61.20;99715.14;669053;1260;139834;-79
2024/04/24 07:51:49;;;;;;;15.00;9.30;;;;;;;11.76;60.41;99700.52;666592;1265;139099;-79
2024/04/24 08:06:53;;;;;;;18.20;9.80;;;;;;;13.04;59.15;99675.03;666544;1265;138745;-79
2024/04/24 08:21:57;;;;;;;22.50;12.40;;;;;;;13.10;57.88;99662.30;667507;1265;138899;-81
2024/04/24 08:37:00;;;;;;;18.20;11.00;;;;;;;12.78;57.20;99651.75;665517;1276;139016;-78
2024/04/24 08:52:06;;;;;;;17.10;12.50;;;;;;;13.85;57.18;99633.25;666138;1265;138554;-80
2024/04/24 09:07:12;;;;;;;15.70;10.60;;;;;;;16.19;55.44;99610.33;664326;1264;138662;-79
2024/04/24 09:22:19;;;;;;;19.60;12.60;;;;;;;16.77;54.09;99599.36;664875;1265;139075;-78
2024/04/24 09:37:23;;;;;;;15.70;9.30;;;;;;;16.93;52.79;99585.22;664590;1265;138826;-79
2024/04/24 09:52:27;;;;;;;20.10;15.40;;;;;;;17.10;51.85;99558.34;664368;1265;138723;-78
2024/04/24 10:07:35;;;;;;;24.50;14.50;;;;;;;17.39;51.11;99536.75;665807;1265;138418;-77
2024/04/24 10:22:41;;;;;;;19.30;12.20;;;;;;;16.78;50.76;99517.42;666461;1276;174949;-78
2024/04/24 10:37:48;;;;;;;29.00;17.40;;;;;;;16.66;50.56;99500.84;665395;1268;139523;-78
2024/04/24 10:52:53;;;;;;;20.30;12.70;;;;;;;17.39;49.75;99480.09;666689;1276;138757;-79
2024/04/24 11:08:04;;;;;;;27.40;14.90;;;;;;;17.97;48.45;99459.51;665246;1265;139279;-77
2024/04/24 11:23:11;;;;;;;17.60;10.60;;;;;;;17.67;47.53;99436.06;669780;1265;138666;-78
2024/04/24 11:38:15;;;;;;;19.60;12.20;;;;;;;16.67;48.03;99431.66;671297;1265;138806;-78
2024/04/24 11:53:18;;;;;;;20.00;11.80;;;;;;;15.96;48.74;99421.77;672035;1260;139392;-77
2024/04/24 12:08:24;;;;;;;20.80;13.70;;;;;;;15.91;49.32;99409.92;668702;1265;138945;-78
2024/04/24 12:23:31;;;;;;;21.00;10.40;;;;;;;15.37;49.89;99397.42;672895;1265;138962;-78
2024/04/24 12:38:35;;;;;;;19.70;13.20;;;;;;;15.38;49.97;99386.79;669214;1262;139612;-78
2024/04/24 12:53:38;;;;;;;22.90;14.70;;;;;;;15.88;49.68;99372.30;672624;1262;140073;-78
2024/04/24 13:08:42;;;;;;;30.70;18.10;;;;;;;16.41;48.99;99349.90;673521;1265;140059;-77
2024/04/24 13:23:46;;;;;;;20.00;11.70;;;;;;;16.07;48.68;99332.81;671561;1265;139390;-78
2024/04/24 13:38:53;;;;;;;24.20;12.30;;;;;;;15.57;49.82;99321.77;675599;1265;140141;-79
2024/04/24 13:53:57;;;;;;;33.20;16.80;;;;;;;15.49;50.73;99308.54;673508;1267;139458;-79
2024/04/24 14:09:00;;;;;;;20.10;9.40;;;;;;;15.70;51.26;99306.73;672175;1278;138993;-78
2024/04/24 14:24:04;;;;;;;59.40;27.80;;;;;;;16.46;50.85;99298.60;677066;1260;138721;-79
2024/04/24 14:39:07;;;;;;;66.60;40.70;;;;;;;16.97;50.74;99278.23;673095;1265;138594;-77
2024/04/24 14:54:10;;;;;;;80.10;41.20;;;;;;;16.84;50.32;99270.38;668816;1262;138416;-78
2024/04/24 15:09:13;;;;;;;28.10;16.40;;;;;;;16.41;50.07;99260.43;667641;1263;140831;-79
2024/04/24 15:24:16;;;;;;;28.60;13.10;;;;;;;15.88;50.38;99252.66;668992;1265;138443;-80
2024/04/24 15:39:19;;;;;;;27.80;15.00;;;;;;;15.34;50.82;99238.61;675356;1264;139734;-79
2024/04/24 15:54:23;;;;;;;37.80;18.30;;;;;;;14.92;51.81;99239.00;678585;1262;138852;-79
2024/04/24 16:09:26;;;;;;;25.20;15.30;;;;;;;14.80;52.08;99234.54;674881;1262;139435;-80
2024/04/24 16:24:29;;;;;;;19.10;10.80;;;;;;;14.68;52.90;99235.20;673840;1262;138808;-80
2024/04/24 16:39:33;;;;;;;22.20;14.60;;;;;;;14.60;52.96;99223.02;672547;1262;138965;-79
2024/04/24 16:54:36;;;;;;;124.30;60.50;;;;;;;14.14;53.74;99220.40;672105;1263;138856;-81
2024/04/24 17:09:40;;;;;;;37.30;19.20;;;;;;;13.18;55.41;99213.01;672712;1260;138722;-80
2024/04/24 17:24:43;;;;;;;40.30;24.20;;;;;;;12.48;56.89;99215.50;673710;1263;138799;-80
2024/04/24 17:39:47;;;;;;;149.30;68.50;;;;;;;11.99;58.10;99211.33;671532;1262;138866;-80
2024/04/24 17:54:50;;;;;;;110.20;50.90;;;;;;;11.87;58.99;99213.70;671586;1263;138636;-80
2024/04/24 18:09:54;;;;;;;45.90;24.00;;;;;;;11.76;60.02;99218.52;672900;1263;139187;-80
2024/04/24 18:24:58;;;;;;;63.30;35.50;;;;;;;11.59;60.35;99234.03;673445;1263;138654;-82
2024/04/24 18:40:04;;;;;;;45.70;23.60;;;;;;;11.46;61.10;99249.48;675088;1273;138588;-80
2024/04/24 18:55:12;;;;;;;39.20;20.60;;;;;;;11.30;61.95;99268.30;673874;1263;138267;-80
2024/04/24 19:10:15;;;;;;;36.80;19.20;;;;;;;11.03;61.91;99269.98;671688;1262;139482;-79
2024/04/24 19:25:19;;;;;;;47.30;20.90;;;;;;;10.80;62.06;99268.30;669839;1268;139054;-77
2024/04/24 19:40:24;;;;;;;38.30;18.10;;;;;;;10.71;62.68;99269.11;674004;1268;139184;-79
2024/04/24 19:55:27;;;;;;;38.60;18.20;;;;;;;10.64;63.12;99263.89;669264;1263;139128;-80
2024/04/24 20:10:31;;;;;;;109.20;36.20;;;;;;;10.41;63.82;99247.73;671458;1263;139862;-79
2024/04/24 20:25:35;;;;;;;108.70;37.00;;;;;;;10.03;64.23;99242.67;669193;1262;139308;-80
2024/04/24 20:40:38;;;;;;;65.80;21.20;;;;;;;9.58;64.83;99242.63;673213;1263;139061;-79
2024/04/24 21:01:11;;;;;;;46.20;20.90;;;;;;;9.08;65.50;99235.06;654468;1298;544932;-79
2024/04/24 21:16:15;;;;;;;46.50;23.70;;;;;;;8.57;66.95;99243.38;667529;1275;140693;-80
2024/04/24 21:31:18;;;;;;;38.80;19.30;;;;;;;8.21;68.31;99248.86;666650;1272;139149;-80
2024/04/24 21:46:22;;;;;;;38.80;20.80;;;;;;;7.91;69.07;99248.42;667290;1275;138532;-82
2024/04/24 22:01:25;;;;;;;32.50;16.70;;;;;;;7.47;70.36;99252.63;665224;1275;138565;-79
2024/04/24 22:16:28;;;;;;;31.10;15.70;;;;;;;7.07;71.23;99250.27;664664;1275;138218;-80
2024/04/24 22:31:31;;;;;;;51.70;22.70;;;;;;;6.93;72.07;99242.14;663475;1275;138752;-81
2024/04/24 22:46:34;;;;;;;39.30;22.50;;;;;;;6.90;72.51;99238.63;665208;1276;140650;-79
2024/04/24 23:01:38;;;;;;;31.00;17.40;;;;;;;6.83;73.10;99239.36;670155;1264;138801;-82
2024/04/24 23:16:43;;;;;;;69.20;26.30;;;;;;;6.75;73.76;99232.64;668394;1259;138547;-80
2024/04/24 23:31:47;;;;;;;79.10;26.40;;;;;;;6.69;73.90;99221.20;669043;1265;138647;-79
2024/04/24 23:46:52;;;;;;;52.90;21.80;;;;;;;6.75;74.46;99219.55;666973;1265;140720;-81
